Time;durP1;ratioP1;P1;durP2;ratioP2;P2;SDS_P1;SDS_P2;PMS_P1;PMS_P2;Temp;Humidity;BMP_temperature;BMP_pressure;BME280_temperature;BME280_humidity;BME280_pressure;Samples;Min_cycle;Max_cycle;Signal;HPM_P1;HPM_P2
2021/01/21 00:02:23;;;;;;;108.57;42.10;;;-3.60;53.10;;;;;;5099176;28;20035;-92
2021/01/21 00:04:48;;;;;;;107.60;41.33;;;-3.50;53.90;;;;;;5072263;28;20387;-95
2021/01/21 00:07:14;;;;;;;109.30;41.40;;;-3.50;53.50;;;;;;5068501;28;20025;-92
2021/01/21 00:09:40;;;;;;;122.57;44.13;;;-3.50;53.60;;;;;;5063632;28;20231;-92
2021/01/21 00:12:06;;;;;;;131.57;45.08;;;-3.50;53.70;;;;;;5064571;28;20122;-93
2021/01/21 00:14:32;;;;;;;124.00;44.42;;;-3.50;53.70;;;;;;5067892;28;20067;-93
2021/01/21 00:16:58;;;;;;;130.85;46.55;;;-3.50;53.80;;;;;;5068398;28;20067;-91
2021/01/21 00:19:23;;;;;;;126.65;46.22;;;-3.40;54.00;;;;;;5067489;28;20120;-93
2021/01/21 00:21:49;;;;;;;142.77;51.35;;;-3.40;54.10;;;;;;5064419;28;20057;-93
2021/01/21 00:24:15;;;;;;;130.43;45.63;;;-3.40;54.00;;;;;;5063948;28;20020;-93
2021/01/21 00:26:40;;;;;;;123.47;43.47;;;-3.30;54.10;;;;;;5065014;28;20029;-93
2021/01/21 00:29:06;;;;;;;120.13;41.65;;;-3.30;54.10;;;;;;5064987;28;20060;-95
2021/01/21 00:31:32;;;;;;;109.68;40.67;;;-3.30;54.10;;;;;;5068581;28;20033;-92
2021/01/21 00:33:57;;;;;;;88.68;30.95;;;-3.30;54.30;;;;;;5068653;28;20044;-92
2021/01/21 00:36:23;;;;;;;105.65;40.55;;;-3.20;54.40;;;;;;5068827;28;20503;-92
2021/01/21 00:38:50;;;;;;;102.22;36.75;;;-3.30;54.90;;;;;;5065334;28;20031;-91
2021/01/21 00:41:17;;;;;;;112.18;39.83;;;-3.30;54.50;;;;;;5045973;28;20056;-93
2021/01/21 00:43:43;;;;;;;106.18;38.42;;;-3.30;54.60;;;;;;5064961;28;20025;-92
2021/01/21 00:46:09;;;;;;;101.40;36.65;;;-3.30;54.80;;;;;;5064877;28;20020;-92
2021/01/21 00:48:34;;;;;;;88.82;34.05;;;-3.30;54.90;;;;;;5051501;28;20020;-93
2021/01/21 00:51:00;;;;;;;94.25;31.55;;;-3.30;54.90;;;;;;5071718;28;20550;-94
2021/01/21 00:53:26;;;;;;;70.68;26.15;;;-3.30;55.00;;;;;;5070843;28;20040;-93
2021/01/21 00:55:52;;;;;;;88.20;31.92;;;-3.20;55.10;;;;;;5066712;28;20025;-94
2021/01/21 00:58:17;;;;;;;85.85;33.67;;;-3.20;55.10;;;;;;5068531;28;20024;-91
2021/01/21 01:00:43;;;;;;;86.75;31.45;;;-3.20;55.10;;;;;;5078680;28;20017;-92
2021/01/21 01:03:10;;;;;;;68.57;25.17;;;-3.20;55.20;;;;;;5069890;28;20052;-95
2021/01/21 01:05:36;;;;;;;76.40;30.38;;;-3.20;55.30;;;;;;5041509;28;20033;-95
2021/01/21 01:08:03;;;;;;;83.93;31.63;;;-3.10;55.20;;;;;;5037742;28;20020;-93
2021/01/21 01:10:29;;;;;;;96.78;36.67;;;-3.10;55.30;;;;;;5061791;28;20092;-93
2021/01/21 01:12:54;;;;;;;90.13;32.42;;;-3.10;55.30;;;;;;5078469;28;20016;-91
2021/01/21 01:15:32;;;;;;;88.07;32.63;;;-3.00;55.50;;;;;;5078264;28;20049;-91
2021/01/21 01:17:59;;;;;;;92.80;35.30;;;-3.00;55.50;;;;;;5060523;28;20029;-92
2021/01/21 01:20:25;;;;;;;104.03;37.67;;;-3.00;55.30;;;;;;5040535;28;20032;-92
2021/01/21 01:22:54;;;;;;;97.57;37.72;;;-3.00;55.30;;;;;;5057791;28;20433;-92
2021/01/21 01:25:21;;;;;;;93.80;35.83;;;-3.00;55.50;;;;;;5056920;28;20373;-92
2021/01/21 01:27:47;;;;;;;105.93;39.30;;;-3.00;55.50;;;;;;5057537;28;20059;-92
2021/01/21 01:30:14;;;;;;;115.47;39.17;;;-3.00;55.50;;;;;;5039782;28;20033;-93
2021/01/21 01:32:40;;;;;;;105.13;40.17;;;-3.00;55.50;;;;;;5056444;28;20479;-92
2021/01/21 01:35:07;;;;;;;92.95;34.55;;;-3.00;55.60;;;;;;5037959;28;20021;-93
2021/01/21 01:37:33;;;;;;;80.55;31.20;;;-3.00;55.60;;;;;;5054806;28;20032;-93
2021/01/21 01:39:58;;;;;;;63.90;27.33;;;-3.00;55.50;;;;;;5062040;28;20043;-91
2021/01/21 01:42:25;;;;;;;68.82;24.85;;;-3.00;55.50;;;;;;5057839;28;20029;-93
2021/01/21 01:44:51;;;;;;;50.08;20.42;;;-3.00;55.50;;;;;;5063458;28;20431;-92
2021/01/21 01:47:18;;;;;;;51.53;21.98;;;-3.00;55.50;;;;;;5068574;28;20107;-94
2021/01/21 01:49:45;;;;;;;56.67;21.45;;;-3.00;55.40;;;;;;5084473;28;20021;-92
2021/01/21 01:52:11;;;;;;;54.95;23.70;;;-3.00;55.40;;;;;;5075841;28;20054;-93
2021/01/21 01:54:40;;;;;;;46.90;20.45;;;-3.00;55.40;;;;;;5059385;28;20044;-92
2021/01/21 01:57:06;;;;;;;62.70;22.80;;;-3.00;55.40;;;;;;5077243;28;20078;-92
2021/01/21 01:59:34;;;;;;;55.20;22.10;;;-3.00;55.30;;;;;;5088833;28;20029;-92
2021/01/21 02:02:00;;;;;;;54.00;22.85;;;-3.00;55.30;;;;;;5095408;28;20490;-92
2021/01/21 02:04:26;;;;;;;53.50;20.88;;;-3.00;55.20;;;;;;5077899;28;20078;-92
2021/01/21 02:06:52;;;;;;;47.40;20.60;;;-3.00;55.30;;;;;;5077983;28;20020;-92
2021/01/21 02:09:19;;;;;;;45.40;19.25;;;-2.90;55.30;;;;;;5095315;28;20087;-92
2021/01/21 02:12:12;;;;;;;45.45;18.92;;;-2.90;55.30;;;;;;5094621;28;20066;-94
2021/01/21 02:15:03;;;;;;;47.97;19.13;;;-2.90;55.30;;;;;;5077866;28;20027;-93
2021/01/21 02:17:34;;;;;;;43.90;18.20;;;-2.90;55.10;;;;;;5097414;28;20050;-93
2021/01/21 02:20:35;;;;;;;45.90;18.73;;;-2.80;55.10;;;;;;5097661;28;20063;-95
2021/01/21 02:23:38;;;;;;;54.42;20.17;;;-2.80;55.00;;;;;;5101590;28;20027;-91
2021/01/21 02:26:09;;;;;;;40.35;18.02;;;-2.80;54.90;;;;;;5108415;28;20046;-92
2021/01/21 02:28:56;;;;;;;47.40;19.42;;;-2.80;54.80;;;;;;5110029;28;20000;-94
2021/01/21 02:31:38;;;;;;;46.60;20.73;;;-2.80;55.00;;;;;;5116796;28;20036;-95
2021/01/21 02:34:11;;;;;;;54.60;23.27;;;-2.80;54.90;;;;;;5118257;28;20019;-93
2021/01/21 02:36:40;;;;;;;51.63;22.48;;;-2.80;54.90;;;;;;5118153;28;20027;-93
2021/01/21 02:39:10;;;;;;;52.38;23.33;;;-2.80;54.90;;;;;;5097145;28;20028;-92
2021/01/21 02:41:37;;;;;;;48.75;23.90;;;-2.80;55.00;;;;;;5095335;28;20368;-94
2021/01/21 02:44:03;;;;;;;46.65;22.02;;;-2.90;54.90;;;;;;5095486;28;20029;-94
2021/01/21 02:46:29;;;;;;;45.65;20.50;;;-2.80;55.10;;;;;;5095750;28;20020;-94
2021/01/21 02:48:58;;;;;;;45.83;18.77;;;-2.90;55.20;;;;;;5100596;28;20478;-94
2021/01/21 02:51:33;;;;;;;40.55;19.15;;;-2.90;55.30;;;;;;5080443;28;20085;-95
2021/01/21 02:54:13;;;;;;;;;;;-2.90;55.40;;;;;;5100078;28;20658;-94
2021/01/21 02:56:41;;;;;;;45.97;18.17;;;-2.90;55.30;;;;;;5099283;28;19971;-94
2021/01/21 02:59:13;;;;;;;45.28;18.83;;;-2.80;55.10;;;;;;5100004;28;20387;-93
2021/01/21 03:01:40;;;;;;;41.92;17.88;;;-2.90;55.20;;;;;;5081392;28;20361;-95
2021/01/21 03:04:07;;;;;;;47.40;18.77;;;-2.90;56.00;;;;;;5081819;28;20020;-91
2021/01/21 03:06:34;;;;;;;36.15;14.73;;;-2.90;55.50;;;;;;5077031;28;20081;-94
2021/01/21 03:09:00;;;;;;;50.45;19.98;;;-2.90;55.60;;;;;;5079520;28;20055;-92
2021/01/21 03:11:26;;;;;;;41.13;19.25;;;-2.80;55.60;;;;;;5070358;28;20139;-93
2021/01/21 03:13:54;;;;;;;44.40;19.75;;;-2.80;55.70;;;;;;5087661;28;20011;-92
2021/01/21 03:16:20;;;;;;;50.45;19.80;;;-2.80;55.70;;;;;;5070009;28;20052;-93
2021/01/21 03:18:50;;;;;;;48.08;21.52;;;-2.80;55.70;;;;;;5067196;28;20025;-94
2021/01/21 03:21:17;;;;;;;54.83;22.90;;;-2.70;55.80;;;;;;5091107;28;20015;-92
2021/01/21 03:23:43;;;;;;;53.90;22.35;;;-2.70;55.70;;;;;;5088720;28;20459;-93
2021/01/21 03:26:09;;;;;;;51.22;22.45;;;-2.60;55.70;;;;;;5095527;28;20028;-92
2021/01/21 03:28:35;;;;;;;49.13;21.70;;;-2.60;55.60;;;;;;5078285;28;20063;-93
2021/01/21 03:31:01;;;;;;;50.42;23.05;;;-2.50;55.70;;;;;;5068982;28;20103;-93
2021/01/21 03:33:26;;;;;;;47.17;22.23;;;-2.50;55.70;;;;;;5078806;28;20106;-92
2021/01/21 03:35:52;;;;;;;45.53;20.55;;;-2.50;55.60;;;;;;5055336;28;20028;-90
2021/01/21 03:38:18;;;;;;;48.33;19.40;;;-2.50;55.60;;;;;;5077451;28;20028;-94
2021/01/21 03:40:43;;;;;;;45.83;20.08;;;-2.50;55.70;;;;;;5052738;28;20032;-94
2021/01/21 03:43:09;;;;;;;45.58;18.98;;;-2.50;55.90;;;;;;5062955;28;20088;-91
2021/01/21 03:45:35;;;;;;;53.35;20.38;;;-2.50;56.10;;;;;;5072116;28;20029;-91
2021/01/21 03:48:00;;;;;;;51.67;21.52;;;-2.50;56.30;;;;;;5070415;28;20033;-90
2021/01/21 03:50:26;;;;;;;47.75;24.13;;;-2.40;56.50;;;;;;5065513;28;20031;-96
2021/01/21 03:52:52;;;;;;;52.65;24.77;;;-2.40;56.80;;;;;;5063147;28;20017;-93
2021/01/21 03:55:17;;;;;;;55.83;27.92;;;-2.40;56.90;;;;;;5071849;28;20029;-94
2021/01/21 03:57:43;;;;;;;48.85;24.65;;;-2.40;57.10;;;;;;5068634;28;20104;-95
2021/01/21 04:00:09;;;;;;;44.58;22.60;;;-2.40;57.20;;;;;;5064633;28;20056;-93
2021/01/21 04:02:35;;;;;;;42.90;19.50;;;-2.40;57.30;;;;;;5044427;28;20115;-95
2021/01/21 04:05:01;;;;;;;40.53;19.73;;;-2.30;57.50;;;;;;5064670;28;20412;-94
2021/01/21 04:07:27;;;;;;;48.03;20.88;;;-2.30;57.60;;;;;;5050016;28;20177;-95
2021/01/21 04:09:53;;;;;;;45.03;19.67;;;-2.30;57.80;;;;;;5063011;28;20021;-94
2021/01/21 04:12:19;;;;;;;48.72;22.02;;;-2.30;57.90;;;;;;5066717;28;20051;-95
2021/01/21 04:14:45;;;;;;;46.10;20.20;;;-2.20;58.10;;;;;;5064208;28;20369;-95
2021/01/21 04:17:11;;;;;;;52.53;23.00;;;-2.20;58.20;;;;;;5066869;28;20349;-93
2021/01/21 04:19:37;;;;;;;50.47;22.23;;;-2.20;58.40;;;;;;5047518;28;20032;-94
2021/01/21 04:22:03;;;;;;;45.25;21.13;;;-2.20;58.70;;;;;;5050865;28;20025;-94
2021/01/21 04:24:29;;;;;;;54.72;24.55;;;-2.20;58.60;;;;;;5070813;28;20033;-93
2021/01/21 04:26:55;;;;;;;48.58;25.25;;;-2.10;58.60;;;;;;5071674;28;20037;-92
2021/01/21 04:29:20;;;;;;;52.83;23.77;;;-2.10;58.70;;;;;;5075455;28;20048;-92
2021/01/21 04:31:46;;;;;;;42.17;20.02;;;-2.10;58.70;;;;;;5088837;28;20129;-91
2021/01/21 04:34:12;;;;;;;77.53;26.90;;;-2.10;58.80;;;;;;5082352;28;20008;-91
2021/01/21 04:36:37;;;;;;;48.38;21.85;;;-2.10;58.80;;;;;;5082660;28;20036;-94
2021/01/21 04:39:04;;;;;;;45.30;21.48;;;-2.00;59.00;;;;;;5082647;28;20100;-93
2021/01/21 04:41:30;;;;;;;80.00;28.88;;;-2.00;59.10;;;;;;5099799;28;20028;-92
2021/01/21 04:43:55;;;;;;;64.93;25.55;;;-2.00;59.10;;;;;;5099687;28;20048;-93
2021/01/21 04:46:21;;;;;;;61.80;24.55;;;-2.00;59.20;;;;;;5099498;28;20013;-92
2021/01/21 04:48:48;;;;;;;61.33;25.20;;;-2.00;59.40;;;;;;5098925;28;20013;-93
2021/01/21 04:51:16;;;;;;;69.57;26.35;;;-2.00;59.60;;;;;;5099144;28;20037;-93
2021/01/21 04:53:51;;;;;;;52.70;24.02;;;-2.00;59.60;;;;;;5075647;28;20120;-93
2021/01/21 04:56:24;;;;;;;53.45;24.20;;;-2.00;59.70;;;;;;5093323;28;20036;-93
2021/01/21 04:58:53;;;;;;;66.43;26.52;;;-2.00;59.80;;;;;;5081682;28;20021;-85
2021/01/21 05:01:19;;;;;;;72.13;26.75;;;-2.00;59.80;;;;;;5076094;28;20039;-85
2021/01/21 05:03:45;;;;;;;59.58;25.25;;;-1.90;59.80;;;;;;5086492;28;20048;-94
2021/01/21 05:06:11;;;;;;;76.95;26.33;;;-1.90;59.90;;;;;;5076888;28;20025;-92
2021/01/21 05:08:38;;;;;;;69.07;27.45;;;-1.90;60.00;;;;;;5096196;28;20020;-94
2021/01/21 05:11:04;;;;;;;77.28;27.85;;;-1.90;60.10;;;;;;5093232;28;20040;-93
2021/01/21 05:13:31;;;;;;;63.90;21.98;;;-2.00;60.30;;;;;;5093222;28;20059;-93
2021/01/21 05:15:57;;;;;;;47.60;18.23;;;-1.90;60.50;;;;;;5081556;28;20029;-92
2021/01/21 05:18:30;;;;;;;80.65;27.88;;;-1.90;60.60;;;;;;5097063;28;20042;-92
2021/01/21 05:20:56;;;;;;;55.50;22.13;;;-2.00;60.80;;;;;;5094479;28;20020;-94
2021/01/21 05:23:25;;;;;;;57.05;21.88;;;-2.00;60.90;;;;;;5089120;28;20036;-93
2021/01/21 05:25:51;;;;;;;55.70;22.85;;;-2.00;61.10;;;;;;5072219;28;20028;-94
2021/01/21 05:28:18;;;;;;;56.05;21.67;;;-1.90;61.40;;;;;;5090852;28;20024;-94
2021/01/21 05:30:48;;;;;;;63.53;24.58;;;-1.90;61.50;;;;;;5079979;28;20025;-94
2021/01/21 05:33:15;;;;;;;57.85;21.50;;;-1.90;61.60;;;;;;5095086;28;20042;-93
2021/01/21 05:35:42;;;;;;;56.40;21.55;;;-1.90;61.70;;;;;;5092107;28;20059;-93
2021/01/21 05:38:09;;;;;;;55.13;20.73;;;-1.90;61.70;;;;;;5086762;28;20027;-93
2021/01/21 05:40:35;;;;;;;60.25;24.00;;;-1.90;61.90;;;;;;5085111;28;20078;-92
2021/01/21 05:43:02;;;;;;;51.42;17.92;;;-1.90;62.20;;;;;;5067526;28;20043;-94
2021/01/21 05:45:28;;;;;;;60.08;21.92;;;-1.90;62.30;;;;;;5072360;28;20025;-94
2021/01/21 05:47:58;;;;;;;56.80;23.38;;;-1.90;62.40;;;;;;5095201;28;20039;-94
2021/01/21 05:50:29;;;;;;;52.88;22.80;;;-1.90;62.50;;;;;;5089925;28;20096;-93
2021/01/21 05:52:56;;;;;;;53.28;22.48;;;-1.90;62.70;;;;;;5073960;28;20028;-92
2021/01/21 05:55:26;;;;;;;54.17;22.80;;;-1.80;62.80;;;;;;5089115;28;20025;-93
2021/01/21 05:57:54;;;;;;;56.65;22.88;;;-1.80;62.90;;;;;;5089817;28;20044;-94
2021/01/21 06:00:21;;;;;;;53.35;23.92;;;-1.80;63.00;;;;;;5071633;28;20098;-92
2021/01/21 06:02:51;;;;;;;47.53;21.10;;;-1.80;63.20;;;;;;5067430;28;20449;-90
2021/01/21 06:05:21;;;;;;;45.20;17.60;;;-1.80;63.40;;;;;;5062838;28;20025;-88
2021/01/21 06:07:48;;;;;;;49.83;20.15;;;-1.70;63.50;;;;;;5072500;28;20526;-86
2021/01/21 06:10:15;;;;;;;45.05;20.35;;;-1.70;63.60;;;;;;5083116;28;20092;-91
2021/01/21 06:12:46;;;;;;;48.13;20.33;;;-1.70;63.70;;;;;;5065805;28;20020;-90
2021/01/21 06:15:14;;;;;;;56.90;21.20;;;-1.70;63.70;;;;;;5083340;28;20480;-91
2021/01/21 06:17:46;;;;;;;44.35;17.73;;;-1.60;63.80;;;;;;5081851;28;20130;-92
2021/01/21 06:20:14;;;;;;;49.20;21.77;;;-1.60;63.90;;;;;;5079575;28;20150;-92
2021/01/21 06:22:42;;;;;;;47.78;19.10;;;-1.60;63.90;;;;;;5082059;28;20068;-92
2021/01/21 06:25:13;;;;;;;65.03;26.45;;;-1.50;64.00;;;;;;5085530;28;20088;-92
2021/01/21 06:27:41;;;;;;;62.38;23.27;;;-1.50;63.90;;;;;;5050193;28;20036;-92
2021/01/21 06:30:18;;;;;;;56.00;22.60;;;-1.40;63.90;;;;;;5083383;28;20032;-92
2021/01/21 06:32:58;;;;;;;57.85;24.17;;;-1.40;64.10;;;;;;5084152;28;20106;-92
2021/01/21 06:35:30;;;;;;;50.15;21.95;;;-1.40;63.90;;;;;;5084844;28;20078;-92
2021/01/21 06:37:59;;;;;;;45.33;19.60;;;-1.40;63.80;;;;;;5062910;28;20036;-91
2021/01/21 06:40:27;;;;;;;49.00;22.25;;;-1.40;63.80;;;;;;5062924;28;20051;-92
2021/01/21 06:43:07;;;;;;;54.60;22.98;;;-1.40;63.90;;;;;;5089163;28;20028;-92
2021/01/21 06:45:33;;;;;;;48.08;21.30;;;-1.40;64.00;;;;;;5086250;28;20036;-92
2021/01/21 06:47:59;;;;;;;50.58;21.73;;;-1.40;64.00;;;;;;5068050;28;20028;-92
2021/01/21 06:50:31;;;;;;;50.90;21.83;;;-1.40;64.10;;;;;;5065409;28;20060;-91
2021/01/21 06:52:59;;;;;;;50.35;20.83;;;-1.40;64.20;;;;;;5068500;28;20028;-92
2021/01/21 06:55:27;;;;;;;51.72;19.95;;;-1.40;64.40;;;;;;5082677;28;20538;-92
2021/01/21 06:57:53;;;;;;;49.05;21.13;;;-1.40;64.40;;;;;;5067633;28;20483;-93
2021/01/21 07:00:39;;;;;;;45.25;19.15;;;-1.40;64.50;;;;;;5064441;28;20033;-91
2021/01/21 07:03:05;;;;;;;50.60;19.98;;;-1.40;64.60;;;;;;5083491;28;20028;-91
2021/01/21 07:05:31;;;;;;;44.95;20.30;;;-1.40;64.60;;;;;;5092789;28;20009;-91
2021/01/21 07:08:02;;;;;;;42.70;18.35;;;-1.40;64.80;;;;;;5079551;28;20123;-93
2021/01/21 07:10:38;;;;;;;53.42;21.70;;;-1.40;65.00;;;;;;5096503;28;20048;-92
2021/01/21 07:13:18;;;;;;;41.47;18.27;;;-1.40;65.10;;;;;;5097415;28;20028;-93
2021/01/21 07:15:44;;;;;;;47.75;19.52;;;-1.30;65.30;;;;;;5077027;28;20101;-94
2021/01/21 07:18:18;;;;;;;44.08;19.02;;;-1.20;65.20;;;;;;5051992;28;20029;-91
2021/01/21 07:20:59;;;;;;;;;;;-1.10;65.30;;;;;;5070769;28;20037;-93
2021/01/21 07:23:45;;;;;;;49.22;20.50;;;-1.10;65.00;;;;;;5071697;28;19904;-93
2021/01/21 07:26:40;;;;;;;54.97;21.15;;;-1.00;65.00;;;;;;5071329;28;20033;-94
2021/01/21 07:29:06;;;;;;;48.40;19.83;;;-1.00;65.00;;;;;;5080500;28;20025;-93
2021/01/21 07:31:55;;;;;;;39.88;19.92;;;-1.00;65.00;;;;;;5061253;28;20052;-92
2021/01/21 07:34:29;;;;;;;52.67;20.90;;;-1.00;65.20;;;;;;5069286;28;20036;-93
2021/01/21 07:37:07;;;;;;;52.88;21.92;;;-0.90;65.30;;;;;;5084626;28;20021;-93
2021/01/21 07:40:05;;;;;;;47.50;19.73;;;-0.90;65.30;;;;;;5081940;28;20049;-94
2021/01/21 07:42:33;;;;;;;48.95;21.13;;;-0.80;65.50;;;;;;5071469;28;20061;-93
2021/01/21 07:45:06;;;;;;;56.53;25.08;;;-0.80;65.50;;;;;;5072601;28;20025;-89
2021/01/21 07:47:37;;;;;;;39.58;18.10;;;-0.80;65.60;;;;;;5056978;28;20032;-96
2021/01/21 07:50:29;;;;;;;45.40;20.70;;;-0.80;65.80;;;;;;5067806;28;20087;-95
2021/01/21 07:52:57;;;;;;;81.35;25.67;;;-0.70;66.00;;;;;;5045219;28;20381;-95
2021/01/21 07:55:37;;;;;;;46.78;21.95;;;-0.70;66.00;;;;;;5064763;28;20021;-95
2021/01/21 07:58:23;;;;;;;54.80;22.38;;;-0.60;66.20;;;;;;5063725;28;20021;-93
2021/01/21 08:00:54;;;;;;;58.55;23.48;;;-0.60;66.40;;;;;;5063184;28;20039;-94
2021/01/21 08:03:49;;;;;;;56.63;24.33;;;-0.50;66.40;;;;;;5075357;28;20016;-92
2021/01/21 08:06:25;;;;;;;45.58;21.38;;;-0.50;66.60;;;;;;5065472;28;20068;-90
2021/01/21 08:08:55;;;;;;;43.67;20.85;;;-0.30;66.60;;;;;;5078888;28;20035;-88
2021/01/21 08:11:22;;;;;;;43.45;19.58;;;-0.30;66.40;;;;;;5091576;28;20078;-92
2021/01/21 08:13:56;;;;;;;46.10;21.60;;;-0.30;66.40;;;;;;5087062;28;20039;-92
2021/01/21 08:16:22;;;;;;;45.17;18.98;;;-0.20;66.70;;;;;;5087311;28;20028;-92
2021/01/21 08:18:48;;;;;;;39.10;17.38;;;-0.10;66.70;;;;;;5073751;28;20024;-92
2021/01/21 08:21:25;;;;;;;43.88;19.30;;;0.00;66.60;;;;;;5070994;28;20029;-93
2021/01/21 08:23:56;;;;;;;46.00;20.27;;;0.00;66.70;;;;;;5073795;28;20056;-93
2021/01/21 08:26:23;;;;;;;38.95;17.90;;;0.10;66.90;;;;;;5083972;28;20111;-93
2021/01/21 08:28:48;;;;;;;50.38;21.13;;;0.30;66.90;;;;;;5081105;28;20028;-93
2021/01/21 08:31:15;;;;;;;42.30;19.73;;;0.40;66.50;;;;;;5069876;28;20041;-94
2021/01/21 08:33:41;;;;;;;44.63;20.23;;;0.50;66.50;;;;;;5080705;28;20689;-93
2021/01/21 08:36:11;;;;;;;49.22;20.10;;;0.60;66.30;;;;;;5086071;28;20013;-91
2021/01/21 08:38:44;;;;;;;39.17;18.63;;;0.70;66.40;;;;;;5082099;28;20016;-92
2021/01/21 08:41:14;;;;;;;40.72;18.65;;;0.80;66.10;;;;;;5041562;28;20083;-92
2021/01/21 08:43:41;;;;;;;43.03;20.05;;;0.90;65.90;;;;;;5053418;28;20432;-91
2021/01/21 08:46:20;;;;;;;41.60;17.08;;;1.00;66.00;;;;;;5075453;28;20043;-93
2021/01/21 08:48:49;;;;;;;40.03;18.33;;;1.10;65.90;;;;;;5067118;28;20048;-93
2021/01/21 08:51:37;;;;;;;41.22;19.00;;;1.30;65.60;;;;;;5065662;28;20048;-92
2021/01/21 08:54:13;;;;;;;41.80;18.67;;;1.40;65.60;;;;;;5068555;28;20357;-94
2021/01/21 08:56:39;;;;;;;27.08;12.95;;;1.40;65.20;;;;;;5069077;28;20024;-94
2021/01/21 08:59:30;;;;;;;39.53;17.27;;;1.50;64.90;;;;;;5069935;28;20135;-93
2021/01/21 09:01:58;;;;;;;43.92;19.48;;;1.40;64.70;;;;;;5068431;28;20035;-92
2021/01/21 09:04:32;;;;;;;39.22;19.27;;;1.40;64.80;;;;;;5050787;28;20031;-91
2021/01/21 09:06:59;;;;;;;49.80;22.55;;;1.40;64.90;;;;;;5044795;28;20025;-93
2021/01/21 09:09:26;;;;;;;47.17;19.50;;;1.40;65.00;;;;;;5063047;28;20115;-92
2021/01/21 09:11:52;;;;;;;43.15;19.23;;;1.40;65.00;;;;;;5077856;28;20158;-92
2021/01/21 09:14:23;;;;;;;46.88;18.92;;;1.50;65.10;;;;;;5069870;28;20096;-90
2021/01/21 09:16:54;;;;;;;43.00;19.58;;;1.50;65.20;;;;;;5061289;28;20025;-77
2021/01/21 09:19:28;;;;;;;44.63;20.30;;;1.60;65.00;;;;;;5065008;28;20033;-78
2021/01/21 09:22:08;;;;;;;45.03;20.52;;;1.60;65.10;;;;;;5074481;28;20086;-77
2021/01/21 09:24:53;;;;;;;41.38;18.52;;;1.60;65.20;;;;;;5068623;28;20119;-77
2021/01/21 09:27:20;;;;;;;47.60;21.35;;;1.70;65.80;;;;;;5062844;28;20021;-78
2021/01/21 09:30:11;;;;;;;34.83;16.17;;;1.70;65.10;;;;;;5046706;28;20025;-77
2021/01/21 09:32:44;;;;;;;45.20;21.88;;;1.80;65.00;;;;;;5046736;28;20067;-78
2021/01/21 09:35:17;;;;;;;45.75;20.75;;;1.80;64.90;;;;;;5046337;28;20032;-76
2021/01/21 09:37:53;;;;;;;45.00;18.98;;;1.80;64.90;;;;;;5080826;23;20053;-80
2021/01/21 09:40:24;;;;;;;44.40;18.45;;;1.80;65.00;;;;;;5042545;28;20021;-81
2021/01/21 09:42:51;;;;;;;39.55;18.27;;;1.80;65.00;;;;;;5025721;28;20479;-80
2021/01/21 09:45:18;;;;;;;50.72;16.90;;;1.80;64.90;;;;;;5042137;28;20485;-81
2021/01/21 09:47:45;;;;;;;37.70;16.10;;;1.80;65.00;;;;;;5042429;28;20021;-81
2021/01/21 09:50:12;;;;;;;37.85;17.90;;;1.80;64.90;;;;;;5043811;28;20025;-82
2021/01/21 09:52:38;;;;;;;38.38;16.67;;;1.70;65.10;;;;;;5042857;28;20112;-83
2021/01/21 09:55:05;;;;;;;39.15;18.00;;;1.70;65.30;;;;;;5042551;28;20091;-83
2021/01/21 09:57:31;;;;;;;36.97;15.25;;;1.70;65.50;;;;;;5042280;28;20039;-82
2021/01/21 09:59:57;;;;;;;40.17;17.25;;;1.70;65.40;;;;;;5045740;28;20808;-83
2021/01/21 10:02:24;;;;;;;32.60;15.23;;;1.70;65.50;;;;;;5063389;28;20052;-83
2021/01/21 10:04:50;;;;;;;35.70;14.80;;;1.70;65.60;;;;;;5073810;28;20027;-80
2021/01/21 10:07:15;;;;;;;35.10;16.27;;;1.70;65.50;;;;;;5072197;28;20440;-83
2021/01/21 10:09:46;;;;;;;38.58;17.10;;;1.70;65.40;;;;;;5052385;28;20111;-82
2021/01/21 10:12:12;;;;;;;35.20;16.38;;;1.60;65.50;;;;;;5073569;28;20037;-86
2021/01/21 10:14:38;;;;;;;27.65;12.07;;;1.60;65.50;;;;;;5059625;28;20124;-84
2021/01/21 10:17:07;;;;;;;38.30;17.95;;;1.60;65.60;;;;;;5053474;28;20031;-84
2021/01/21 10:19:33;;;;;;;45.38;18.88;;;1.50;65.70;;;;;;5053194;28;20021;-84
2021/01/21 10:22:14;;;;;;;34.53;16.83;;;1.50;65.80;;;;;;5053922;28;20100;-82
2021/01/21 10:24:40;;;;;;;36.28;17.08;;;1.50;65.90;;;;;;5059625;28;20025;-83
2021/01/21 10:27:06;;;;;;;41.83;18.95;;;1.60;66.10;;;;;;5061684;28;20477;-84
2021/01/21 10:29:31;;;;;;;43.63;18.38;;;1.60;66.30;;;;;;5064333;28;20430;-84
2021/01/21 10:32:05;;;;;;;44.72;19.15;;;1.70;66.30;;;;;;5073878;28;20064;-85
2021/01/21 10:34:31;;;;;;;45.63;18.08;;;1.70;66.40;;;;;;5055294;28;20020;-85
2021/01/21 10:36:57;;;;;;;37.05;16.02;;;1.80;66.20;;;;;;5072769;28;20101;-83
2021/01/21 10:39:24;;;;;;;36.35;16.67;;;1.90;66.20;;;;;;5073280;28;20111;-85
2021/01/21 10:41:50;;;;;;;42.13;17.75;;;1.90;66.00;;;;;;5067796;28;20087;-82
2021/01/21 10:44:16;;;;;;;43.25;19.25;;;1.90;66.00;;;;;;5034683;28;20068;-81
2021/01/21 10:46:45;;;;;;;38.55;18.63;;;2.00;65.90;;;;;;5065944;28;20433;-82
2021/01/21 10:49:11;;;;;;;42.13;18.77;;;2.00;65.90;;;;;;5048005;28;20032;-82
2021/01/21 10:51:42;;;;;;;37.92;18.75;;;2.00;66.10;;;;;;5054883;28;20039;-81
2021/01/21 10:54:08;;;;;;;39.92;18.73;;;2.00;66.10;;;;;;5063174;28;20036;-84
2021/01/21 10:56:39;;;;;;;30.33;13.15;;;2.10;66.20;;;;;;5072314;28;20109;-82
2021/01/21 10:59:06;;;;;;;37.00;16.92;;;2.10;66.30;;;;;;5072071;28;20501;-83
2021/01/21 11:02:13;;;;;;;;;;;;;;;;;;;;;
2021/01/21 11:04:39;;;;;;;33.50;15.07;;;2.20;66.20;;;;;;5066424;28;20047;-82
2021/01/21 11:07:05;;;;;;;40.30;17.00;;;2.30;66.30;;;;;;5072909;28;20055;-83
2021/01/21 11:09:36;;;;;;;37.83;16.30;;;2.30;66.20;;;;;;5075822;28;20426;-83
2021/01/21 11:12:04;;;;;;;44.20;16.48;;;2.30;66.20;;;;;;5076497;28;20044;-84
2021/01/21 11:14:30;;;;;;;41.00;15.98;;;2.40;66.30;;;;;;5059623;28;20074;-85
2021/01/21 11:16:56;;;;;;;33.25;16.13;;;2.40;66.50;;;;;;5059146;28;20055;-83
2021/01/21 11:19:22;;;;;;;38.50;16.67;;;2.50;66.70;;;;;;5065246;28;20025;-81
2021/01/21 11:21:52;;;;;;;40.13;17.92;;;2.60;66.60;;;;;;5049874;28;20377;-81
2021/01/21 11:24:19;;;;;;;39.97;16.83;;;2.60;66.30;;;;;;5045935;28;20022;-82
2021/01/21 11:26:46;;;;;;;40.45;18.45;;;2.70;66.40;;;;;;5044558;28;20025;-81
2021/01/21 11:29:17;;;;;;;33.03;17.20;;;2.80;66.30;;;;;;5025566;28;20037;-82
2021/01/21 11:31:42;;;;;;;33.70;16.35;;;2.90;66.10;;;;;;5036095;28;20052;-84
2021/01/21 11:34:13;;;;;;;36.75;17.60;;;3.10;66.20;;;;;;5037386;28;20026;-84
2021/01/21 11:36:39;;;;;;;38.00;17.60;;;3.20;66.00;;;;;;5036455;28;20026;-83
2021/01/21 11:39:30;;;;;;;36.95;17.35;;;3.40;66.10;;;;;;5036461;28;20122;-85
2021/01/21 11:41:55;;;;;;;36.22;16.80;;;3.60;66.00;;;;;;5006757;28;20331;-81
2021/01/21 11:45:10;;;;;;;25.58;13.20;;;4.00;65.50;;;;;;5036536;28;20029;-82
2021/01/21 11:47:39;;;;;;;36.85;18.90;;;4.20;64.60;;;;;;5036408;28;20445;-82
2021/01/21 11:50:16;;;;;;;37.53;18.70;;;4.60;64.90;;;;;;5036628;28;20024;-84
2021/01/21 11:52:44;;;;;;;37.40;18.27;;;5.10;63.80;;;;;;5036692;28;20091;-82
2021/01/21 11:55:35;;;;;;;41.25;19.88;;;5.30;62.20;;;;;;5037225;28;20013;-84
2021/01/21 11:58:01;;;;;;;39.40;17.88;;;5.50;61.70;;;;;;5038280;28;20386;-82
2021/01/21 12:00:27;;;;;;;29.98;15.07;;;5.70;60.80;;;;;;5036660;28;20021;-82
2021/01/21 12:02:53;;;;;;;32.20;16.95;;;5.80;60.90;;;;;;5036120;28;20101;-85
2021/01/21 12:05:20;;;;;;;38.22;19.15;;;6.10;60.20;;;;;;5018577;28;20112;-82
2021/01/21 12:07:51;;;;;;;31.67;14.93;;;6.00;59.10;;;;;;5018544;28;20483;-84
2021/01/21 12:10:19;;;;;;;27.23;13.18;;;5.80;58.50;;;;;;5036270;28;20052;-81
2021/01/21 12:12:48;;;;;;;31.20;16.17;;;5.50;58.50;;;;;;5036258;28;20029;-85
2021/01/21 12:15:14;;;;;;;32.22;15.60;;;5.20;58.60;;;;;;5035569;28;20526;-84
2021/01/21 12:17:40;;;;;;;35.80;19.70;;;4.90;59.00;;;;;;5035934;28;20061;-82
2021/01/21 12:20:58;;;;;;;34.80;16.92;;;4.70;59.70;;;;;;5035023;28;20026;-84
2021/01/21 12:23:25;;;;;;;32.03;16.10;;;4.50;60.10;;;;;;5035852;28;20589;-84
2021/01/21 12:25:50;;;;;;;32.97;17.33;;;4.30;60.30;;;;;;5035334;28;20120;-81
2021/01/21 12:28:16;;;;;;;34.72;17.25;;;4.20;60.60;;;;;;5035533;28;20406;-82
2021/01/21 12:31:25;;;;;;;35.15;18.38;;;4.00;60.90;;;;;;5026007;28;20057;-85
2021/01/21 12:37:13;;;;;;;40.28;18.80;;;3.80;61.70;;;;;;5036334;28;20070;-84
2021/01/21 12:43:07;;;;;;;38.60;19.42;;;4.20;62.70;;;;;;5036540;28;20045;-81
2021/01/21 12:48:56;;;;;;;40.22;18.75;;;5.50;64.20;;;;;;5035385;28;20115;-83
2021/01/21 12:54:47;;;;;;;33.35;16.80;;;7.20;60.00;;;;;;5035572;28;20055;-81
2021/01/21 13:00:38;;;;;;;33.60;17.17;;;8.70;56.80;;;;;;5035319;28;20163;-83
2021/01/21 13:06:25;;;;;;;32.55;19.90;;;9.70;53.20;;;;;;5035378;28;20537;-83